createdAt,value
2022-08-28T00:00:25.690Z,23.50
2022-08-28T00:02:53.375Z,23.40
2022-08-28T00:05:21.794Z,23.40
2022-08-28T00:07:49.103Z,23.30
2022-08-28T00:10:17.334Z,23.30
2022-08-28T00:12:44.785Z,23.20
2022-08-28T00:15:14.344Z,23.10
2022-08-28T00:17:42.318Z,23.10
2022-08-28T00:20:10.371Z,23.00
2022-08-28T00:22:38.526Z,22.90
2022-08-28T00:25:07.466Z,22.80
2022-08-28T00:27:52.646Z,22.80
2022-08-28T00:30:23.741Z,22.80
2022-08-28T00:32:51.500Z,22.70
2022-08-28T00:35:19.009Z,22.70
2022-08-28T00:37:46.787Z,22.60
2022-08-28T00:40:16.187Z,22.60
2022-08-28T00:42:43.388Z,22.60
2022-08-28T00:45:10.436Z,22.50
2022-08-28T00:47:39.408Z,22.50
2022-08-28T00:50:08.020Z,22.50
2022-08-28T00:52:35.478Z,22.40
2022-08-28T00:55:05.168Z,22.40
2022-08-28T00:57:35.737Z,22.30
2022-08-28T01:00:05.347Z,22.30
2022-08-28T01:02:32.397Z,22.20
2022-08-28T01:04:59.622Z,22.20
2022-08-28T01:07:26.656Z,22.10
2022-08-28T01:09:54.559Z,22.10
2022-08-28T01:12:24.422Z,22.10
2022-08-28T01:14:53.673Z,22.10
2022-08-28T01:17:23.677Z,22.10
2022-08-28T01:19:57.127Z,22.00
2022-08-28T01:22:26.939Z,22.00
2022-08-28T01:24:55.519Z,21.90
2022-08-28T01:27:23.561Z,21.90
2022-08-28T01:29:52.203Z,21.90
2022-08-28T01:32:30.239Z,21.90
2022-08-28T01:34:57.240Z,21.90
2022-08-28T01:37:24.197Z,21.80
2022-08-28T01:39:51.453Z,21.80
2022-08-28T01:42:18.490Z,21.80
2022-08-28T01:44:45.583Z,21.70
2022-08-28T01:47:12.553Z,21.70
2022-08-28T01:49:39.601Z,21.60
2022-08-28T01:52:06.788Z,21.50
2022-08-28T01:54:34.110Z,21.50
2022-08-28T01:57:03.364Z,21.50
2022-08-28T01:59:30.383Z,21.50
2022-08-28T02:01:57.449Z,21.50
2022-08-28T02:04:29.640Z,21.50
2022-08-28T02:06:59.531Z,21.50
2022-08-28T02:09:26.501Z,21.50
2022-08-28T02:11:55.144Z,21.40
2022-08-28T02:14:22.757Z,21.40
2022-08-28T02:16:50.012Z,21.30
2022-08-28T02:19:17.237Z,21.30
2022-08-28T02:21:44.493Z,21.30
2022-08-28T02:24:11.479Z,21.30
2022-08-28T02:26:39.135Z,21.20
2022-08-28T02:29:06.600Z,21.20
2022-08-28T02:31:33.851Z,21.20
2022-08-28T02:34:01.066Z,21.10
2022-08-28T02:36:28.339Z,21.10
2022-08-28T02:38:57.727Z,21.10
2022-08-28T02:41:25.483Z,21.00
2022-08-28T02:43:52.510Z,20.90
2022-08-28T02:46:19.674Z,20.90
2022-08-28T02:48:47.211Z,21.00
2022-08-28T02:51:14.782Z,20.90
2022-08-28T02:56:09.638Z,20.90
2022-08-28T02:58:36.915Z,20.80
2022-08-28T03:01:04.896Z,20.70
2022-08-28T03:03:32.666Z,20.80
2022-08-28T03:06:00.750Z,20.70
2022-08-28T03:08:28.738Z,20.80
2022-08-28T03:10:55.830Z,20.70
2022-08-28T03:13:26.984Z,20.60
2022-08-28T03:15:55.847Z,20.50
2022-08-28T03:18:25.353Z,20.60
2022-08-28T03:20:53.308Z,20.50
2022-08-28T03:23:29.477Z,20.50
2022-08-28T03:25:56.483Z,20.50
2022-08-28T03:28:24.752Z,20.50
2022-08-28T03:30:51.883Z,20.50
2022-08-28T03:33:19.638Z,20.50
2022-08-28T03:35:46.610Z,20.50
2022-08-28T03:38:13.886Z,20.40
2022-08-28T03:40:42.623Z,20.40
2022-08-28T03:43:11.376Z,20.40
2022-08-28T03:45:39.117Z,20.40
2022-08-28T03:48:08.612Z,20.40
2022-08-28T03:50:37.050Z,20.40
2022-08-28T03:53:04.125Z,20.40
2022-08-28T03:55:31.127Z,20.40
2022-08-28T03:58:01.344Z,20.40
2022-08-28T04:00:28.593Z,20.40
2022-08-28T04:02:55.604Z,20.40
2022-08-28T04:05:23.365Z,20.40
2022-08-28T04:07:53.075Z,20.40
2022-08-28T04:10:20.122Z,20.40
2022-08-28T04:12:47.392Z,20.40
2022-08-28T04:15:15.261Z,20.40
2022-08-28T04:17:42.361Z,20.40
2022-08-28T04:20:09.750Z,20.40
2022-08-28T04:22:37.470Z,20.40
2022-08-28T04:25:04.964Z,20.40
2022-08-28T04:27:32.096Z,20.40
2022-08-28T04:29:59.326Z,20.40
2022-08-28T04:32:26.591Z,20.40
2022-08-28T04:34:54.115Z,20.40
2022-08-28T04:37:21.213Z,20.30
2022-08-28T04:39:51.879Z,20.30
2022-08-28T04:42:19.368Z,20.30
2022-08-28T04:44:46.411Z,20.30
2022-08-28T04:47:13.449Z,20.30
2022-08-28T04:49:40.972Z,20.40
2022-08-28T04:52:08.007Z,20.40
2022-08-28T04:54:35.124Z,20.50
2022-08-28T04:57:02.896Z,20.60
2022-08-28T04:59:33.583Z,20.60
2022-08-28T05:02:01.053Z,20.60
2022-08-28T05:04:28.252Z,20.60
2022-08-28T05:06:55.286Z,20.70
2022-08-28T05:09:22.469Z,20.70
2022-08-28T05:11:49.665Z,20.80
2022-08-28T05:14:16.810Z,20.80
2022-08-28T05:16:50.101Z,20.90
2022-08-28T05:19:18.397Z,20.90
2022-08-28T05:21:48.033Z,21.00
2022-08-28T05:24:15.048Z,21.10
2022-08-28T05:26:42.262Z,21.10
2022-08-28T05:29:10.005Z,21.10
2022-08-28T05:31:39.486Z,21.20
2022-08-28T05:34:07.229Z,21.30
2022-08-28T05:36:35.925Z,21.30
2022-08-28T05:41:30.942Z,21.50
2022-08-28T05:43:59.478Z,21.60
2022-08-28T05:46:28.544Z,21.60
2022-08-28T05:48:56.234Z,21.70
2022-08-28T05:51:26.567Z,21.80
2022-08-28T05:53:55.085Z,21.90
2022-08-28T05:56:23.509Z,22.00
2022-08-28T05:58:50.850Z,22.10
2022-08-28T06:01:20.284Z,22.10
2022-08-28T06:03:52.893Z,22.10
2022-08-28T06:06:20.043Z,22.20
2022-08-28T06:08:56.141Z,22.20
2022-08-28T06:11:26.893Z,22.20
2022-08-28T06:13:53.953Z,22.30
2022-08-28T06:16:21.060Z,22.20
2022-08-28T06:18:48.327Z,22.20
2022-08-28T06:21:15.404Z,22.30
2022-08-28T06:23:45.939Z,22.40
2022-08-28T06:26:12.964Z,22.50
2022-08-28T06:28:40.097Z,22.60
2022-08-28T06:31:27.168Z,22.70
2022-08-28T06:33:56.296Z,22.80
2022-08-28T06:36:23.944Z,22.80
2022-08-28T06:38:51.308Z,22.90
2022-08-28T06:41:19.771Z,22.90
2022-08-28T06:43:46.929Z,23.10
2022-08-28T06:46:13.932Z,23.20
2022-08-28T06:48:41.110Z,23.30
2022-08-28T06:51:09.662Z,23.30
2022-08-28T06:53:37.405Z,23.40
2022-08-28T06:56:25.616Z,23.60
2022-08-28T06:58:55.843Z,23.80
2022-08-28T07:01:30.202Z,24.10
2022-08-28T07:03:59.739Z,25.80
2022-08-28T07:08:54.073Z,28.70
2022-08-28T07:11:26.033Z,29.40
2022-08-28T07:13:54.343Z,30.10
2022-08-28T07:16:22.973Z,30.60
2022-08-28T07:18:50.168Z,30.20
2022-08-28T07:21:17.438Z,29.90
2022-08-28T07:23:45.080Z,30.00
2022-08-28T07:46:12.132Z,29.60
2022-08-28T07:48:40.246Z,29.90
2022-08-28T07:51:07.844Z,30.60
2022-08-28T07:53:36.698Z,31.10
2022-08-28T07:56:04.584Z,31.20
2022-08-28T07:58:32.204Z,32.10
2022-08-28T08:00:59.357Z,32.60
2022-08-28T08:03:26.444Z,32.70
2022-08-28T08:05:54.557Z,32.70
2022-08-28T08:08:22.127Z,32.80
2022-08-28T08:10:59.522Z,33.40
2022-08-28T08:13:29.535Z,33.30
2022-08-28T08:16:08.076Z,33.50
2022-08-28T08:18:35.276Z,34.00
2022-08-28T08:21:04.526Z,34.00
2022-08-28T08:23:31.562Z,34.20
2022-08-28T08:26:00.125Z,34.10
2022-08-28T08:28:27.990Z,33.70
2022-08-28T08:31:12.110Z,32.70
2022-08-28T08:33:40.271Z,32.10
2022-08-28T08:36:07.582Z,31.60
2022-08-28T08:38:35.073Z,31.50
2022-08-28T08:41:05.056Z,31.20
2022-08-28T08:43:34.427Z,30.90
2022-08-28T08:46:01.658Z,30.80
2022-08-28T08:48:35.564Z,30.90
2022-08-28T08:51:06.540Z,31.10
2022-08-28T08:53:51.318Z,31.50
2022-08-28T08:56:21.847Z,32.00
2022-08-28T08:58:53.909Z,32.30
2022-08-28T09:01:27.397Z,32.60
2022-08-28T09:04:03.987Z,32.50
2022-08-28T09:06:35.408Z,32.60
2022-08-28T09:09:05.297Z,33.00
2022-08-28T09:11:44.702Z,33.60
2022-08-28T09:33:55.769Z,34.30
2022-08-28T09:36:28.831Z,34.50
2022-08-28T09:39:17.367Z,34.80
2022-08-28T09:42:23.292Z,35.00
2022-08-28T09:44:53.624Z,35.70
2022-08-28T09:47:40.585Z,36.60
2022-08-28T09:50:17.125Z,36.80
2022-08-28T09:52:44.305Z,36.50
2022-08-28T09:55:12.780Z,36.10
2022-08-28T09:57:42.846Z,36.10
2022-08-28T10:00:10.332Z,36.00
2022-08-28T10:02:58.808Z,35.80
2022-08-28T10:05:33.446Z,36.00
2022-08-28T10:08:04.654Z,36.20
2022-08-28T10:10:39.480Z,36.20
2022-08-28T10:13:17.941Z,36.20
2022-08-28T10:15:44.974Z,36.10
2022-08-28T10:18:50.775Z,35.90
2022-08-28T10:21:20.413Z,35.90
2022-08-28T10:23:50.473Z,36.00
2022-08-28T10:26:35.691Z,36.20
2022-08-28T10:29:02.791Z,36.20
2022-08-28T10:31:32.955Z,36.40
2022-08-28T10:34:02.982Z,36.10
2022-08-28T10:36:34.437Z,36.10
2022-08-28T10:39:11.785Z,36.00
2022-08-28T10:41:43.904Z,36.10
2022-08-28T10:44:14.032Z,36.10
2022-08-28T10:46:50.659Z,36.10
2022-08-28T10:49:53.662Z,35.90
2022-08-28T10:52:20.628Z,35.70
2022-08-28T10:54:57.122Z,35.90
2022-08-28T10:57:27.243Z,36.40
2022-08-28T10:59:56.768Z,36.80
2022-08-28T11:02:24.960Z,36.90
2022-08-28T11:04:57.799Z,37.20
2022-08-28T11:07:36.807Z,37.40
2022-08-28T11:10:42.290Z,37.50
2022-08-28T11:13:10.388Z,37.20
2022-08-28T11:15:41.927Z,36.90
2022-08-28T11:18:15.041Z,36.60
2022-08-28T11:20:43.483Z,36.20
2022-08-28T11:23:15.765Z,36.30
2022-08-28T11:25:49.836Z,36.70
2022-08-28T11:28:25.940Z,36.70
2022-08-28T11:30:58.934Z,37.20
2022-08-28T11:33:35.072Z,37.30
2022-08-28T11:36:02.319Z,37.50
2022-08-28T11:38:41.559Z,38.00
2022-08-28T11:41:11.616Z,38.00
2022-08-28T11:43:40.492Z,38.00
2022-08-28T11:46:12.032Z,38.90
2022-08-28T11:48:47.141Z,39.20
2022-08-28T11:51:16.888Z,39.30
2022-08-28T11:53:50.423Z,39.10
2022-08-28T11:56:37.147Z,38.90
2022-08-28T11:59:10.281Z,38.50
2022-08-28T12:01:38.031Z,38.20
2022-08-28T12:04:08.649Z,38.40
2022-08-28T12:06:49.549Z,38.60
2022-08-28T12:09:25.967Z,38.30
2022-08-28T12:12:19.338Z,37.90
2022-08-28T12:14:46.415Z,37.40
2022-08-28T12:17:17.344Z,37.40
2022-08-28T12:19:55.258Z,37.60
2022-08-28T12:22:25.119Z,37.90
2022-08-28T12:24:55.061Z,38.50
2022-08-28T12:27:22.441Z,38.80
2022-08-28T12:29:49.378Z,38.40
2022-08-28T12:32:25.124Z,38.10
2022-08-28T12:34:53.103Z,37.80
2022-08-28T12:37:39.478Z,37.70
2022-08-28T12:40:21.661Z,37.70
2022-08-28T12:42:54.551Z,38.00
2022-08-28T12:45:27.621Z,37.70
2022-08-28T12:47:56.089Z,37.80
2022-08-28T12:50:26.096Z,37.50
2022-08-28T12:52:54.765Z,37.30
2022-08-28T12:55:24.483Z,36.70
2022-08-28T12:57:51.926Z,35.80
2022-08-28T13:00:20.560Z,35.20
2022-08-28T13:02:50.777Z,34.90
2022-08-28T13:05:29.055Z,34.50
2022-08-28T13:07:56.369Z,34.20
2022-08-28T13:10:24.729Z,34.10
2022-08-28T13:12:58.878Z,34.20
2022-08-28T13:15:43.987Z,34.00
2022-08-28T13:18:10.925Z,33.50
2022-08-28T13:20:39.078Z,33.20
2022-08-28T13:23:06.199Z,33.00
2022-08-28T13:25:37.559Z,32.90
2022-08-28T13:28:15.092Z,32.80
2022-08-28T13:30:42.335Z,32.60
2022-08-28T13:33:24.293Z,32.60
2022-08-28T13:35:52.505Z,32.60
2022-08-28T13:38:20.816Z,32.50
2022-08-28T13:40:58.055Z,32.50
2022-08-28T13:43:27.634Z,32.50
2022-08-28T13:45:54.838Z,32.50
2022-08-28T13:48:22.890Z,32.50
2022-08-28T13:50:51.589Z,32.50
2022-08-28T13:53:19.405Z,32.50
2022-08-28T13:55:48.451Z,32.40
2022-08-28T13:58:15.951Z,32.30
2022-08-28T14:00:46.982Z,32.20
2022-08-28T14:03:33.340Z,32.30
2022-08-28T14:06:00.383Z,32.10
2022-08-28T14:08:27.401Z,32.00
2022-08-28T14:10:54.374Z,31.90
2022-08-28T14:13:23.276Z,31.80
2022-08-28T14:15:50.296Z,31.80
2022-08-28T14:18:18.262Z,31.80
2022-08-28T14:20:45.257Z,31.80
2022-08-28T14:23:12.370Z,31.80
2022-08-28T14:25:43.968Z,31.90
2022-08-28T14:28:11.735Z,32.00
2022-08-28T14:30:57.039Z,31.70
2022-08-28T14:33:24.224Z,31.60
2022-08-28T14:35:51.213Z,31.60
2022-08-28T14:38:18.284Z,31.60
2022-08-28T14:40:45.592Z,31.60
2022-08-28T14:43:13.391Z,31.50
2022-08-28T14:45:45.015Z,31.50
2022-08-28T14:48:12.086Z,31.50
2022-08-28T14:50:40.479Z,31.50
2022-08-28T14:53:07.943Z,31.50
2022-08-28T14:55:39.243Z,31.50
2022-08-28T14:58:06.380Z,31.50
2022-08-28T15:00:37.557Z,31.50
2022-08-28T15:03:04.557Z,31.50
2022-08-28T15:05:31.593Z,31.40
2022-08-28T15:07:58.561Z,31.20
2022-08-28T15:10:25.588Z,31.20
2022-08-28T15:12:52.538Z,31.20
2022-08-28T15:15:20.413Z,31.20
2022-08-28T15:17:47.423Z,31.20
2022-08-28T15:20:14.437Z,31.10
2022-08-28T15:22:41.513Z,31.00
2022-08-28T15:25:08.537Z,31.00
2022-08-28T15:27:36.202Z,31.00
2022-08-28T15:30:04.829Z,31.00
2022-08-28T15:32:32.401Z,30.90
2022-08-28T15:34:59.402Z,30.80
2022-08-28T15:37:26.594Z,30.80
2022-08-28T15:40:16.020Z,30.80
2022-08-28T15:42:44.495Z,30.80
2022-08-28T15:45:12.577Z,30.80
2022-08-28T15:47:39.493Z,30.80
2022-08-28T15:50:07.049Z,30.80
2022-08-28T15:52:34.153Z,30.80
2022-08-28T15:55:02.029Z,30.80
2022-08-28T15:57:29.137Z,30.70
2022-08-28T15:59:56.138Z,30.60
2022-08-28T16:02:23.617Z,30.50
2022-08-28T16:04:51.596Z,30.40
2022-08-28T16:07:19.553Z,30.40
2022-08-28T16:09:46.742Z,30.30
2022-08-28T16:12:13.768Z,30.20
2022-08-28T16:14:40.779Z,30.20
2022-08-28T16:17:11.046Z,30.20
2022-08-28T16:19:39.326Z,30.10
2022-08-28T16:22:06.538Z,30.10
2022-08-28T16:24:33.802Z,30.10
2022-08-28T16:27:00.747Z,30.00
2022-08-28T16:29:27.984Z,30.00
2022-08-28T16:31:56.774Z,29.90
2022-08-28T16:34:28.213Z,29.90
2022-08-28T16:36:57.820Z,29.80
2022-08-28T16:39:24.882Z,29.80
2022-08-28T16:41:51.819Z,29.80
2022-08-28T16:44:23.008Z,29.70
2022-08-28T16:46:50.400Z,29.70
2022-08-28T16:49:17.652Z,29.70
2022-08-28T16:51:44.749Z,29.70
2022-08-28T16:54:11.738Z,29.60
2022-08-28T16:56:39.825Z,29.60
2022-08-28T16:59:10.323Z,29.50
2022-08-28T17:01:40.228Z,29.50
2022-08-28T17:04:09.787Z,29.50
2022-08-28T17:06:36.862Z,29.40
2022-08-28T17:09:04.251Z,29.40
2022-08-28T17:11:31.230Z,29.40
2022-08-28T17:14:00.460Z,29.30
2022-08-28T17:16:31.639Z,29.20
2022-08-28T17:18:59.551Z,29.20
2022-08-28T17:21:45.209Z,29.10
2022-08-28T17:24:12.706Z,29.10
2022-08-28T17:26:40.750Z,29.00
2022-08-28T17:29:07.796Z,28.90
2022-08-28T17:31:35.216Z,28.90
2022-08-28T17:34:02.221Z,28.80
2022-08-28T17:36:33.411Z,28.80
2022-08-28T17:39:02.230Z,28.70
2022-08-28T17:41:29.176Z,28.60
2022-08-28T17:43:56.229Z,28.60
2022-08-28T17:46:23.199Z,28.50
2022-08-28T17:48:56.175Z,28.40
2022-08-28T17:51:33.735Z,28.40
2022-08-28T17:54:11.158Z,28.30
2022-08-28T17:56:38.245Z,28.30
2022-08-28T17:59:05.497Z,28.20
2022-08-28T18:01:32.511Z,28.20
2022-08-28T18:03:59.711Z,28.20
2022-08-28T18:06:26.712Z,28.10
2022-08-28T18:08:54.606Z,28.20
2022-08-28T18:11:21.547Z,28.10
2022-08-28T18:13:48.578Z,28.00
2022-08-28T18:16:16.002Z,28.00
2022-08-28T18:18:43.059Z,28.00
2022-08-28T18:21:10.477Z,27.90
2022-08-28T18:23:39.593Z,27.80
2022-08-28T18:26:07.484Z,27.80
2022-08-28T18:28:34.651Z,27.80
2022-08-28T18:31:02.670Z,27.80
2022-08-28T18:33:29.834Z,27.80
2022-08-28T18:35:57.085Z,27.70
2022-08-28T18:38:28.192Z,27.60
2022-08-28T18:40:55.590Z,27.70
2022-08-28T18:43:22.730Z,27.60
2022-08-28T18:45:49.854Z,27.60
2022-08-28T18:48:16.885Z,27.50
2022-08-28T18:50:46.458Z,27.50
2022-08-28T18:53:15.051Z,27.50
2022-08-28T18:55:42.046Z,27.50
2022-08-28T18:58:10.357Z,27.40
2022-08-28T19:00:42.256Z,27.40
2022-08-28T19:03:09.642Z,27.40
2022-08-28T19:05:37.251Z,27.30
2022-08-28T19:08:04.855Z,27.30
2022-08-28T19:10:34.412Z,27.20
2022-08-28T19:13:02.240Z,27.10
2022-08-28T19:15:30.282Z,27.20
2022-08-28T19:17:58.181Z,27.10
2022-08-28T19:20:27.524Z,27.10
2022-08-28T19:22:55.196Z,27.00
2022-08-28T19:25:28.809Z,27.00
2022-08-28T19:28:00.308Z,27.00
2022-08-28T19:30:28.660Z,27.00
2022-08-28T19:32:55.655Z,26.90
2022-08-28T19:35:24.574Z,26.90
2022-08-28T19:37:52.248Z,26.80
2022-08-28T19:40:21.035Z,26.80
2022-08-28T19:42:50.193Z,26.80
2022-08-28T19:45:18.089Z,26.70
2022-08-28T19:47:47.305Z,26.80
2022-08-28T19:50:15.515Z,26.70
2022-08-28T19:52:43.629Z,26.60
2022-08-28T19:55:18.594Z,26.50
2022-08-28T19:57:47.024Z,26.50
2022-08-28T20:00:15.402Z,26.50
2022-08-28T20:02:42.476Z,26.40
2022-08-28T20:05:10.191Z,26.30
2022-08-28T20:07:37.423Z,26.30
2022-08-28T20:10:04.687Z,26.30
2022-08-28T20:12:31.646Z,26.30
2022-08-28T20:15:02.788Z,26.20
2022-08-28T20:17:30.764Z,26.20
2022-08-28T20:20:03.000Z,26.10
2022-08-28T20:22:32.065Z,26.10
2022-08-28T20:24:59.550Z,26.10
2022-08-28T20:27:26.931Z,26.10
2022-08-28T20:29:53.892Z,26.10
2022-08-28T20:32:20.880Z,26.10
2022-08-28T20:34:47.922Z,26.10
2022-08-28T20:37:16.739Z,26.00
2022-08-28T20:39:43.767Z,26.00
2022-08-28T20:42:11.827Z,26.00
2022-08-28T20:44:38.962Z,26.00
2022-08-28T20:47:05.959Z,26.00
2022-08-28T20:49:33.049Z,26.00
2022-08-28T20:52:06.948Z,26.00
2022-08-28T20:54:36.026Z,26.00
2022-08-28T20:57:04.763Z,25.90
2022-08-28T20:59:35.402Z,25.90
2022-08-28T21:02:12.121Z,25.90
2022-08-28T21:04:39.973Z,25.80
2022-08-28T21:07:07.107Z,25.70
2022-08-28T21:10:03.961Z,25.70
2022-08-28T21:14:51.539Z,25.60
2022-08-28T21:17:28.854Z,25.50
2022-08-28T21:19:56.744Z,25.50
2022-08-28T21:22:23.764Z,25.40
2022-08-28T21:24:50.809Z,25.30
2022-08-28T21:27:18.552Z,25.30
2022-08-28T21:29:46.190Z,25.20
2022-08-28T21:32:13.331Z,25.20
2022-08-28T21:34:40.449Z,25.10
2022-08-28T21:37:07.502Z,25.10
2022-08-28T21:39:34.898Z,25.10
2022-08-28T21:42:01.938Z,25.10
2022-08-28T21:44:29.234Z,25.10
2022-08-28T21:46:56.195Z,25.10
2022-08-28T21:49:23.185Z,25.10
2022-08-28T21:51:50.358Z,25.00
2022-08-28T21:54:18.332Z,25.00
2022-08-28T21:56:46.351Z,25.00
2022-08-28T21:59:15.462Z,25.00
2022-08-28T22:01:45.820Z,24.90
2022-08-28T22:04:13.034Z,24.90
2022-08-28T22:06:40.620Z,24.80
2022-08-28T22:09:08.264Z,24.80
2022-08-28T22:11:35.714Z,24.70
2022-08-28T22:14:02.897Z,24.70
2022-08-28T22:16:29.988Z,24.70
2022-08-28T22:18:57.659Z,24.70
2022-08-28T22:24:18.644Z,24.50
2022-08-28T22:26:45.655Z,24.40
2022-08-28T22:29:12.842Z,24.40
2022-08-28T22:31:45.640Z,24.30
2022-08-28T22:34:13.746Z,24.30
2022-08-28T22:36:40.783Z,24.30
2022-08-28T22:39:07.891Z,24.30
2022-08-28T22:41:37.719Z,24.30
2022-08-28T22:44:04.837Z,24.20
2022-08-28T22:46:31.813Z,24.20
2022-08-28T22:48:59.387Z,24.20
2022-08-28T22:51:26.453Z,24.20
2022-08-28T22:53:54.455Z,24.20
2022-08-28T22:56:21.677Z,24.30
2022-08-28T22:58:48.668Z,24.30
2022-08-28T23:01:18.856Z,24.30
2022-08-28T23:03:45.903Z,24.30
2022-08-28T23:06:13.943Z,24.30
2022-08-28T23:08:41.216Z,24.20
2022-08-28T23:11:08.651Z,24.10
2022-08-28T23:13:36.132Z,24.10
2022-08-28T23:16:03.387Z,24.10
2022-08-28T23:18:41.600Z,24.00
2022-08-28T23:21:18.825Z,23.90
2022-08-28T23:23:46.177Z,23.90
2022-08-28T23:26:14.037Z,23.80
2022-08-28T23:28:41.126Z,23.90
2022-08-28T23:31:08.346Z,23.90
2022-08-28T23:33:35.473Z,23.90
2022-08-28T23:36:02.727Z,23.80
2022-08-28T23:38:29.691Z,23.70
2022-08-28T23:40:56.962Z,23.70
2022-08-28T23:43:24.321Z,23.70
2022-08-28T23:45:52.181Z,23.70
2022-08-28T23:48:19.246Z,23.80
2022-08-28T23:50:46.290Z,23.80
2022-08-28T23:53:13.300Z,23.70
2022-08-28T23:55:43.845Z,23.70
2022-08-28T23:58:10.866Z,23.70
